sensor_id;sensor_type;location;lat;lon;timestamp;P1;durP1;ratioP1;P2;durP2;ratioP2
34204;SDS011;20471;49.680;20.074;2024-01-11T00:00:27;145.40;;;72.20;;
34204;SDS011;20471;49.680;20.074;2024-01-11T00:03:14;147.70;;;70.80;;
34204;SDS011;20471;49.680;20.074;2024-01-11T00:05:42;231.90;;;98.40;;
34204;SDS011;20471;49.680;20.074;2024-01-11T00:08:10;236.10;;;108.40;;
34204;SDS011;20471;49.680;20.074;2024-01-11T00:10:38;240.10;;;97.70;;
34204;SDS011;20471;49.680;20.074;2024-01-11T00:13:06;214.70;;;90.00;;
34204;SDS011;20471;49.680;20.074;2024-01-11T00:15:34;206.20;;;93.00;;
34204;SDS011;20471;49.680;20.074;2024-01-11T00:18:01;188.10;;;92.60;;
34204;SDS011;20471;49.680;20.074;2024-01-11T00:20:29;198.40;;;92.10;;
34204;SDS011;20471;49.680;20.074;2024-01-11T00:22:57;190.60;;;96.20;;
34204;SDS011;20471;49.680;20.074;2024-01-11T00:25:25;215.30;;;98.80;;
34204;SDS011;20471;49.680;20.074;2024-01-11T00:27:53;213.00;;;90.40;;
34204;SDS011;20471;49.680;20.074;2024-01-11T00:30:20;181.90;;;84.40;;
34204;SDS011;20471;49.680;20.074;2024-01-11T00:32:49;186.30;;;84.20;;
34204;SDS011;20471;49.680;20.074;2024-01-11T00:35:17;166.00;;;84.00;;
34204;SDS011;20471;49.680;20.074;2024-01-11T00:37:45;170.80;;;75.80;;
34204;SDS011;20471;49.680;20.074;2024-01-11T00:40:12;146.70;;;76.40;;
34204;SDS011;20471;49.680;20.074;2024-01-11T00:42:40;159.50;;;70.40;;
34204;SDS011;20471;49.680;20.074;2024-01-11T00:45:08;157.30;;;70.30;;
34204;SDS011;20471;49.680;20.074;2024-01-11T00:47:36;162.40;;;70.20;;
34204;SDS011;20471;49.680;20.074;2024-01-11T00:50:04;148.00;;;76.50;;
34204;SDS011;20471;49.680;20.074;2024-01-11T00:52:33;150.50;;;69.60;;
34204;SDS011;20471;49.680;20.074;2024-01-11T00:55:00;146.60;;;66.50;;
34204;SDS011;20471;49.680;20.074;2024-01-11T00:57:28;144.50;;;67.70;;
34204;SDS011;20471;49.680;20.074;2024-01-11T00:59:56;151.50;;;68.40;;
34204;SDS011;20471;49.680;20.074;2024-01-11T01:02:23;135.50;;;61.30;;
34204;SDS011;20471;49.680;20.074;2024-01-11T01:04:51;122.50;;;64.70;;
34204;SDS011;20471;49.680;20.074;2024-01-11T01:07:19;136.90;;;69.80;;
34204;SDS011;20471;49.680;20.074;2024-01-11T01:09:47;150.30;;;64.90;;
34204;SDS011;20471;49.680;20.074;2024-01-11T01:12:14;156.90;;;69.20;;
34204;SDS011;20471;49.680;20.074;2024-01-11T01:14:42;164.10;;;70.10;;
34204;SDS011;20471;49.680;20.074;2024-01-11T01:17:10;156.40;;;75.60;;
34204;SDS011;20471;49.680;20.074;2024-01-11T01:19:37;165.60;;;70.50;;
34204;SDS011;20471;49.680;20.074;2024-01-11T01:22:05;169.40;;;71.80;;
34204;SDS011;20471;49.680;20.074;2024-01-11T01:24:33;167.10;;;76.20;;
34204;SDS011;20471;49.680;20.074;2024-01-11T01:27:00;153.70;;;64.80;;
34204;SDS011;20471;49.680;20.074;2024-01-11T01:29:28;137.90;;;61.90;;
34204;SDS011;20471;49.680;20.074;2024-01-11T01:31:56;144.40;;;59.10;;
34204;SDS011;20471;49.680;20.074;2024-01-11T01:34:23;137.10;;;57.20;;
34204;SDS011;20471;49.680;20.074;2024-01-11T01:36:51;112.70;;;49.50;;
34204;SDS011;20471;49.680;20.074;2024-01-11T01:39:18;129.20;;;53.50;;
34204;SDS011;20471;49.680;20.074;2024-01-11T01:41:46;136.00;;;65.80;;
34204;SDS011;20471;49.680;20.074;2024-01-11T01:44:14;138.00;;;59.60;;
34204;SDS011;20471;49.680;20.074;2024-01-11T01:46:41;143.40;;;62.60;;
34204;SDS011;20471;49.680;20.074;2024-01-11T01:49:09;122.30;;;60.30;;
34204;SDS011;20471;49.680;20.074;2024-01-11T01:51:38;118.70;;;51.80;;
34204;SDS011;20471;49.680;20.074;2024-01-11T01:54:06;133.80;;;54.50;;
34204;SDS011;20471;49.680;20.074;2024-01-11T01:56:34;114.70;;;52.00;;
34204;SDS011;20471;49.680;20.074;2024-01-11T01:59:02;115.60;;;49.60;;
34204;SDS011;20471;49.680;20.074;2024-01-11T02:01:31;107.90;;;48.60;;
34204;SDS011;20471;49.680;20.074;2024-01-11T02:03:59;117.40;;;50.90;;
34204;SDS011;20471;49.680;20.074;2024-01-11T02:06:27;107.50;;;51.20;;
34204;SDS011;20471;49.680;20.074;2024-01-11T02:08:58;101.80;;;43.90;;
34204;SDS011;20471;49.680;20.074;2024-01-11T02:11:29;123.80;;;54.00;;
34204;SDS011;20471;49.680;20.074;2024-01-11T02:13:57;124.70;;;54.20;;
34204;SDS011;20471;49.680;20.074;2024-01-11T02:16:26;114.20;;;52.60;;
34204;SDS011;20471;49.680;20.074;2024-01-11T02:18:54;110.80;;;52.80;;
34204;SDS011;20471;49.680;20.074;2024-01-11T02:21:22;115.50;;;52.20;;
34204;SDS011;20471;49.680;20.074;2024-01-11T02:24:02;101.00;;;53.70;;
34204;SDS011;20471;49.680;20.074;2024-01-11T02:26:31;104.30;;;47.90;;
34204;SDS011;20471;49.680;20.074;2024-01-11T02:28:59;102.80;;;47.70;;
34204;SDS011;20471;49.680;20.074;2024-01-11T02:31:26;94.50;;;47.30;;
34204;SDS011;20471;49.680;20.074;2024-01-11T02:33:55;104.50;;;47.80;;
34204;SDS011;20471;49.680;20.074;2024-01-11T02:36:23;96.90;;;51.60;;
34204;SDS011;20471;49.680;20.074;2024-01-11T02:38:53;102.10;;;45.80;;
34204;SDS011;20471;49.680;20.074;2024-01-11T02:41:20;95.80;;;44.90;;
34204;SDS011;20471;49.680;20.074;2024-01-11T02:43:49;92.40;;;42.70;;
34204;SDS011;20471;49.680;20.074;2024-01-11T02:46:17;93.70;;;42.90;;
34204;SDS011;20471;49.680;20.074;2024-01-11T02:48:44;88.20;;;40.00;;
34204;SDS011;20471;49.680;20.074;2024-01-11T02:51:12;95.80;;;43.70;;
34204;SDS011;20471;49.680;20.074;2024-01-11T02:53:40;105.60;;;47.30;;
34204;SDS011;20471;49.680;20.074;2024-01-11T02:56:07;91.60;;;41.60;;
34204;SDS011;20471;49.680;20.074;2024-01-11T02:58:35;88.40;;;47.80;;
34204;SDS011;20471;49.680;20.074;2024-01-11T03:01:03;76.60;;;42.90;;
34204;SDS011;20471;49.680;20.074;2024-01-11T03:03:30;74.80;;;40.10;;
34204;SDS011;20471;49.680;20.074;2024-01-11T03:05:58;77.60;;;37.60;;
34204;SDS011;20471;49.680;20.074;2024-01-11T03:08:26;73.90;;;36.90;;
34204;SDS011;20471;49.680;20.074;2024-01-11T03:10:54;83.80;;;39.10;;
34204;SDS011;20471;49.680;20.074;2024-01-11T03:13:22;70.90;;;39.30;;
34204;SDS011;20471;49.680;20.074;2024-01-11T03:15:50;77.30;;;36.90;;
34204;SDS011;20471;49.680;20.074;2024-01-11T03:18:18;78.00;;;36.30;;
34204;SDS011;20471;49.680;20.074;2024-01-11T03:20:46;88.90;;;38.50;;
34204;SDS011;20471;49.680;20.074;2024-01-11T03:23:13;71.30;;;37.90;;
34204;SDS011;20471;49.680;20.074;2024-01-11T03:25:41;74.00;;;34.40;;
34204;SDS011;20471;49.680;20.074;2024-01-11T03:28:08;78.40;;;33.60;;
34204;SDS011;20471;49.680;20.074;2024-01-11T03:30:36;75.10;;;35.70;;
34204;SDS011;20471;49.680;20.074;2024-01-11T03:33:04;66.40;;;36.20;;
34204;SDS011;20471;49.680;20.074;2024-01-11T03:35:31;71.30;;;34.00;;
34204;SDS011;20471;49.680;20.074;2024-01-11T03:37:59;71.40;;;33.60;;
34204;SDS011;20471;49.680;20.074;2024-01-11T03:40:27;72.70;;;34.10;;
34204;SDS011;20471;49.680;20.074;2024-01-11T03:42:54;68.40;;;32.10;;
34204;SDS011;20471;49.680;20.074;2024-01-11T03:45:22;71.30;;;33.50;;
34204;SDS011;20471;49.680;20.074;2024-01-11T03:47:50;80.10;;;33.70;;
34204;SDS011;20471;49.680;20.074;2024-01-11T03:50:17;73.80;;;34.80;;
34204;SDS011;20471;49.680;20.074;2024-01-11T03:52:46;73.20;;;32.80;;
34204;SDS011;20471;49.680;20.074;2024-01-11T03:55:13;78.90;;;36.50;;
34204;SDS011;20471;49.680;20.074;2024-01-11T03:57:41;78.60;;;33.50;;
34204;SDS011;20471;49.680;20.074;2024-01-11T04:00:10;86.80;;;35.30;;
34204;SDS011;20471;49.680;20.074;2024-01-11T04:02:38;81.70;;;37.40;;
34204;SDS011;20471;49.680;20.074;2024-01-11T04:05:06;90.10;;;37.90;;
34204;SDS011;20471;49.680;20.074;2024-01-11T04:07:34;81.50;;;36.10;;
34204;SDS011;20471;49.680;20.074;2024-01-11T04:10:02;81.40;;;37.10;;
34204;SDS011;20471;49.680;20.074;2024-01-11T04:12:30;72.60;;;33.80;;
34204;SDS011;20471;49.680;20.074;2024-01-11T04:14:58;75.00;;;34.50;;
34204;SDS011;20471;49.680;20.074;2024-01-11T04:17:25;79.00;;;35.20;;
34204;SDS011;20471;49.680;20.074;2024-01-11T04:19:53;75.30;;;34.80;;
34204;SDS011;20471;49.680;20.074;2024-01-11T04:22:21;69.20;;;31.80;;
34204;SDS011;20471;49.680;20.074;2024-01-11T04:24:48;71.70;;;36.40;;
34204;SDS011;20471;49.680;20.074;2024-01-11T04:27:16;76.50;;;36.80;;
34204;SDS011;20471;49.680;20.074;2024-01-11T04:29:44;82.00;;;39.60;;
34204;SDS011;20471;49.680;20.074;2024-01-11T04:32:11;90.40;;;40.10;;
34204;SDS011;20471;49.680;20.074;2024-01-11T04:34:39;92.00;;;41.10;;
34204;SDS011;20471;49.680;20.074;2024-01-11T04:37:06;91.50;;;43.20;;
34204;SDS011;20471;49.680;20.074;2024-01-11T04:39:34;106.20;;;44.70;;
34204;SDS011;20471;49.680;20.074;2024-01-11T04:42:02;99.10;;;47.80;;
34204;SDS011;20471;49.680;20.074;2024-01-11T04:44:30;179.60;;;83.10;;
34204;SDS011;20471;49.680;20.074;2024-01-11T04:46:58;136.50;;;66.70;;
34204;SDS011;20471;49.680;20.074;2024-01-11T04:49:26;109.20;;;50.00;;
34204;SDS011;20471;49.680;20.074;2024-01-11T04:51:53;95.90;;;45.10;;
34204;SDS011;20471;49.680;20.074;2024-01-11T04:54:21;92.10;;;48.80;;
34204;SDS011;20471;49.680;20.074;2024-01-11T04:56:49;95.00;;;44.90;;
34204;SDS011;20471;49.680;20.074;2024-01-11T04:59:16;93.00;;;45.90;;
34204;SDS011;20471;49.680;20.074;2024-01-11T05:01:45;91.00;;;44.30;;
34204;SDS011;20471;49.680;20.074;2024-01-11T05:04:13;99.80;;;48.10;;
34204;SDS011;20471;49.680;20.074;2024-01-11T05:06:41;97.20;;;45.60;;
34204;SDS011;20471;49.680;20.074;2024-01-11T05:09:08;95.90;;;43.50;;
34204;SDS011;20471;49.680;20.074;2024-01-11T05:11:36;95.30;;;41.10;;
34204;SDS011;20471;49.680;20.074;2024-01-11T05:14:04;104.50;;;44.60;;
34204;SDS011;20471;49.680;20.074;2024-01-11T05:16:31;104.50;;;45.90;;
34204;SDS011;20471;49.680;20.074;2024-01-11T05:19:01;116.50;;;50.90;;
34204;SDS011;20471;49.680;20.074;2024-01-11T05:21:29;180.30;;;82.60;;
34204;SDS011;20471;49.680;20.074;2024-01-11T05:23:57;187.10;;;87.80;;
34204;SDS011;20471;49.680;20.074;2024-01-11T05:26:25;158.40;;;69.00;;
34204;SDS011;20471;49.680;20.074;2024-01-11T05:28:53;139.00;;;64.10;;
34204;SDS011;20471;49.680;20.074;2024-01-11T05:31:20;140.90;;;64.20;;
34204;SDS011;20471;49.680;20.074;2024-01-11T05:33:48;139.70;;;60.30;;
34204;SDS011;20471;49.680;20.074;2024-01-11T05:36:16;146.60;;;62.30;;
34204;SDS011;20471;49.680;20.074;2024-01-11T05:38:44;123.10;;;57.60;;
34204;SDS011;20471;49.680;20.074;2024-01-11T05:41:12;129.30;;;55.30;;
34204;SDS011;20471;49.680;20.074;2024-01-11T05:43:40;121.10;;;51.20;;
34204;SDS011;20471;49.680;20.074;2024-01-11T05:46:09;112.00;;;50.60;;
34204;SDS011;20471;49.680;20.074;2024-01-11T05:48:36;123.20;;;51.90;;
34204;SDS011;20471;49.680;20.074;2024-01-11T05:51:04;144.70;;;58.60;;
34204;SDS011;20471;49.680;20.074;2024-01-11T05:53:32;143.50;;;60.40;;
34204;SDS011;20471;49.680;20.074;2024-01-11T05:56:01;157.70;;;64.20;;
34204;SDS011;20471;49.680;20.074;2024-01-11T05:58:29;149.80;;;64.20;;
34204;SDS011;20471;49.680;20.074;2024-01-11T06:00:57;153.00;;;69.00;;
34204;SDS011;20471;49.680;20.074;2024-01-11T06:03:25;148.00;;;71.10;;
34204;SDS011;20471;49.680;20.074;2024-01-11T06:05:54;144.70;;;67.20;;
34204;SDS011;20471;49.680;20.074;2024-01-11T06:08:22;144.00;;;63.10;;
34204;SDS011;20471;49.680;20.074;2024-01-11T06:10:49;140.30;;;61.80;;
34204;SDS011;20471;49.680;20.074;2024-01-11T06:13:18;135.80;;;60.20;;
34204;SDS011;20471;49.680;20.074;2024-01-11T06:15:45;133.20;;;58.90;;
34204;SDS011;20471;49.680;20.074;2024-01-11T06:18:13;127.60;;;58.80;;
34204;SDS011;20471;49.680;20.074;2024-01-11T06:20:41;130.20;;;57.10;;
34204;SDS011;20471;49.680;20.074;2024-01-11T06:23:09;126.70;;;56.60;;
34204;SDS011;20471;49.680;20.074;2024-01-11T06:25:36;124.60;;;60.70;;
34204;SDS011;20471;49.680;20.074;2024-01-11T06:28:04;111.20;;;54.40;;
34204;SDS011;20471;49.680;20.074;2024-01-11T06:30:33;106.10;;;53.50;;
34204;SDS011;20471;49.680;20.074;2024-01-11T06:33:01;117.20;;;61.10;;
34204;SDS011;20471;49.680;20.074;2024-01-11T06:35:29;128.80;;;58.50;;
34204;SDS011;20471;49.680;20.074;2024-01-11T06:37:57;117.60;;;59.80;;
34204;SDS011;20471;49.680;20.074;2024-01-11T06:40:25;122.90;;;59.00;;
34204;SDS011;20471;49.680;20.074;2024-01-11T06:42:52;131.30;;;61.00;;
34204;SDS011;20471;49.680;20.074;2024-01-11T06:45:20;134.50;;;61.70;;
34204;SDS011;20471;49.680;20.074;2024-01-11T06:47:48;129.00;;;63.10;;
34204;SDS011;20471;49.680;20.074;2024-01-11T06:50:15;134.60;;;60.70;;
34204;SDS011;20471;49.680;20.074;2024-01-11T06:52:43;129.00;;;59.90;;
34204;SDS011;20471;49.680;20.074;2024-01-11T06:55:11;120.40;;;59.50;;
34204;SDS011;20471;49.680;20.074;2024-01-11T06:57:39;117.70;;;59.00;;
34204;SDS011;20471;49.680;20.074;2024-01-11T07:00:07;154.30;;;66.70;;
34204;SDS011;20471;49.680;20.074;2024-01-11T07:02:35;146.40;;;66.30;;
34204;SDS011;20471;49.680;20.074;2024-01-11T07:05:02;156.80;;;64.20;;
34204;SDS011;20471;49.680;20.074;2024-01-11T07:07:30;150.10;;;69.70;;
34204;SDS011;20471;49.680;20.074;2024-01-11T07:09:59;146.10;;;68.90;;
34204;SDS011;20471;49.680;20.074;2024-01-11T07:12:27;145.50;;;63.30;;
34204;SDS011;20471;49.680;20.074;2024-01-11T07:14:54;146.00;;;63.80;;
34204;SDS011;20471;49.680;20.074;2024-01-11T07:17:22;149.20;;;71.50;;
34204;SDS011;20471;49.680;20.074;2024-01-11T07:19:50;162.00;;;70.40;;
34204;SDS011;20471;49.680;20.074;2024-01-11T07:22:18;154.90;;;73.60;;
34204;SDS011;20471;49.680;20.074;2024-01-11T07:24:45;161.60;;;73.00;;
34204;SDS011;20471;49.680;20.074;2024-01-11T07:27:13;167.80;;;79.90;;
34204;SDS011;20471;49.680;20.074;2024-01-11T07:29:41;197.60;;;94.40;;
34204;SDS011;20471;49.680;20.074;2024-01-11T07:32:08;187.80;;;94.40;;
34204;SDS011;20471;49.680;20.074;2024-01-11T07:34:36;184.70;;;93.70;;
34204;SDS011;20471;49.680;20.074;2024-01-11T07:37:04;186.50;;;91.70;;
34204;SDS011;20471;49.680;20.074;2024-01-11T07:39:31;201.50;;;101.20;;
34204;SDS011;20471;49.680;20.074;2024-01-11T07:41:59;210.50;;;107.70;;
34204;SDS011;20471;49.680;20.074;2024-01-11T07:44:27;224.80;;;109.70;;
34204;SDS011;20471;49.680;20.074;2024-01-11T07:46:54;240.50;;;129.00;;
34204;SDS011;20471;49.680;20.074;2024-01-11T07:49:22;267.30;;;128.50;;
34204;SDS011;20471;49.680;20.074;2024-01-11T07:51:50;255.30;;;126.20;;
34204;SDS011;20471;49.680;20.074;2024-01-11T07:54:17;240.60;;;134.30;;
34204;SDS011;20471;49.680;20.074;2024-01-11T07:56:45;226.70;;;119.60;;
34204;SDS011;20471;49.680;20.074;2024-01-11T07:59:13;240.70;;;125.00;;
34204;SDS011;20471;49.680;20.074;2024-01-11T08:01:40;201.10;;;122.20;;
34204;SDS011;20471;49.680;20.074;2024-01-11T08:04:08;211.00;;;125.60;;
34204;SDS011;20471;49.680;20.074;2024-01-11T08:06:36;217.40;;;116.70;;
34204;SDS011;20471;49.680;20.074;2024-01-11T08:09:04;178.30;;;104.10;;
34204;SDS011;20471;49.680;20.074;2024-01-11T08:11:31;163.00;;;87.60;;
34204;SDS011;20471;49.680;20.074;2024-01-11T08:13:59;153.00;;;83.10;;
34204;SDS011;20471;49.680;20.074;2024-01-11T08:16:27;172.90;;;103.10;;
34204;SDS011;20471;49.680;20.074;2024-01-11T08:18:54;175.70;;;90.60;;
34204;SDS011;20471;49.680;20.074;2024-01-11T08:21:22;157.70;;;90.60;;
34204;SDS011;20471;49.680;20.074;2024-01-11T08:23:50;160.20;;;92.90;;
34204;SDS011;20471;49.680;20.074;2024-01-11T08:26:18;168.90;;;91.00;;
34204;SDS011;20471;49.680;20.074;2024-01-11T08:28:46;174.60;;;92.60;;
34204;SDS011;20471;49.680;20.074;2024-01-11T08:31:13;177.30;;;101.40;;
34204;SDS011;20471;49.680;20.074;2024-01-11T08:33:41;177.00;;;102.70;;
34204;SDS011;20471;49.680;20.074;2024-01-11T08:36:09;173.80;;;103.40;;
34204;SDS011;20471;49.680;20.074;2024-01-11T08:38:37;133.30;;;78.30;;
34204;SDS011;20471;49.680;20.074;2024-01-11T08:41:06;135.50;;;78.80;;
34204;SDS011;20471;49.680;20.074;2024-01-11T08:43:34;113.40;;;67.10;;
34204;SDS011;20471;49.680;20.074;2024-01-11T08:46:02;119.40;;;69.20;;
34204;SDS011;20471;49.680;20.074;2024-01-11T08:48:29;112.80;;;65.70;;
34204;SDS011;20471;49.680;20.074;2024-01-11T08:50:57;145.20;;;82.30;;
34204;SDS011;20471;49.680;20.074;2024-01-11T08:53:25;170.80;;;100.40;;
34204;SDS011;20471;49.680;20.074;2024-01-11T08:55:52;182.80;;;103.90;;
34204;SDS011;20471;49.680;20.074;2024-01-11T08:58:20;180.70;;;105.80;;
34204;SDS011;20471;49.680;20.074;2024-01-11T09:00:48;184.70;;;112.00;;
34204;SDS011;20471;49.680;20.074;2024-01-11T09:03:15;224.20;;;136.40;;
34204;SDS011;20471;49.680;20.074;2024-01-11T09:05:43;240.30;;;155.90;;
34204;SDS011;20471;49.680;20.074;2024-01-11T09:08:11;227.00;;;143.80;;
34204;SDS011;20471;49.680;20.074;2024-01-11T09:10:38;212.20;;;127.00;;
34204;SDS011;20471;49.680;20.074;2024-01-11T09:13:07;203.80;;;121.60;;
34204;SDS011;20471;49.680;20.074;2024-01-11T09:15:35;172.90;;;103.70;;
34204;SDS011;20471;49.680;20.074;2024-01-11T09:18:03;165.70;;;95.40;;
34204;SDS011;20471;49.680;20.074;2024-01-11T09:20:31;149.40;;;84.70;;
34204;SDS011;20471;49.680;20.074;2024-01-11T09:22:59;128.20;;;68.90;;
34204;SDS011;20471;49.680;20.074;2024-01-11T09:25:30;139.60;;;75.60;;
34204;SDS011;20471;49.680;20.074;2024-01-11T09:27:58;144.10;;;77.10;;
34204;SDS011;20471;49.680;20.074;2024-01-11T09:30:26;132.40;;;72.30;;
34204;SDS011;20471;49.680;20.074;2024-01-11T09:32:54;147.40;;;81.10;;
34204;SDS011;20471;49.680;20.074;2024-01-11T09:35:22;136.30;;;74.10;;
34204;SDS011;20471;49.680;20.074;2024-01-11T09:37:50;137.50;;;70.60;;
34204;SDS011;20471;49.680;20.074;2024-01-11T09:40:18;136.50;;;72.00;;
34204;SDS011;20471;49.680;20.074;2024-01-11T09:42:46;132.70;;;70.40;;
34204;SDS011;20471;49.680;20.074;2024-01-11T09:45:15;168.80;;;102.20;;
34204;SDS011;20471;49.680;20.074;2024-01-11T09:47:44;195.00;;;122.40;;
34204;SDS011;20471;49.680;20.074;2024-01-11T09:50:13;172.50;;;104.90;;
34204;SDS011;20471;49.680;20.074;2024-01-11T09:52:46;202.10;;;109.90;;
34204;SDS011;20471;49.680;20.074;2024-01-11T09:57:47;201.30;;;92.10;;
34204;SDS011;20471;49.680;20.074;2024-01-11T10:00:19;169.30;;;81.30;;
34204;SDS011;20471;49.680;20.074;2024-01-11T10:02:50;141.30;;;73.10;;
34204;SDS011;20471;49.680;20.074;2024-01-11T10:05:18;138.20;;;71.90;;
34204;SDS011;20471;49.680;20.074;2024-01-11T10:07:46;128.60;;;65.10;;
34204;SDS011;20471;49.680;20.074;2024-01-11T10:10:14;117.50;;;59.70;;
34204;SDS011;20471;49.680;20.074;2024-01-11T10:12:42;124.70;;;62.00;;
34204;SDS011;20471;49.680;20.074;2024-01-11T10:15:10;126.30;;;62.30;;
34204;SDS011;20471;49.680;20.074;2024-01-11T10:17:44;107.60;;;54.60;;
34204;SDS011;20471;49.680;20.074;2024-01-11T10:20:13;102.60;;;52.10;;
34204;SDS011;20471;49.680;20.074;2024-01-11T10:22:41;114.30;;;54.60;;
34204;SDS011;20471;49.680;20.074;2024-01-11T10:25:09;115.80;;;58.10;;
34204;SDS011;20471;49.680;20.074;2024-01-11T10:27:39;104.80;;;52.20;;
34204;SDS011;20471;49.680;20.074;2024-01-11T10:30:09;102.10;;;52.00;;
34204;SDS011;20471;49.680;20.074;2024-01-11T10:32:39;101.20;;;51.30;;
34204;SDS011;20471;49.680;20.074;2024-01-11T10:35:07;100.20;;;51.10;;
34204;SDS011;20471;49.680;20.074;2024-01-11T10:37:35;104.30;;;49.70;;
34204;SDS011;20471;49.680;20.074;2024-01-11T10:40:05;77.30;;;40.40;;
34204;SDS011;20471;49.680;20.074;2024-01-11T10:42:39;84.30;;;43.40;;
34204;SDS011;20471;49.680;20.074;2024-01-11T10:45:16;84.60;;;43.90;;
34204;SDS011;20471;49.680;20.074;2024-01-11T10:50:24;72.40;;;38.60;;
34204;SDS011;20471;49.680;20.074;2024-01-11T10:55:33;66.30;;;32.60;;
34204;SDS011;20471;49.680;20.074;2024-01-11T10:58:02;62.50;;;31.60;;
34204;SDS011;20471;49.680;20.074;2024-01-11T11:00:31;59.60;;;31.50;;
34204;SDS011;20471;49.680;20.074;2024-01-11T11:02:59;58.10;;;28.30;;
34204;SDS011;20471;49.680;20.074;2024-01-11T11:05:28;54.20;;;26.10;;
34204;SDS011;20471;49.680;20.074;2024-01-11T11:07:56;44.70;;;22.20;;
34204;SDS011;20471;49.680;20.074;2024-01-11T11:10:26;46.20;;;23.00;;
34204;SDS011;20471;49.680;20.074;2024-01-11T11:12:56;39.90;;;20.70;;
34204;SDS011;20471;49.680;20.074;2024-01-11T11:15:27;29.50;;;15.20;;
34204;SDS011;20471;49.680;20.074;2024-01-11T11:17:55;34.30;;;16.50;;
34204;SDS011;20471;49.680;20.074;2024-01-11T11:20:23;32.70;;;16.30;;
34204;SDS011;20471;49.680;20.074;2024-01-11T11:23:07;33.00;;;16.40;;
34204;SDS011;20471;49.680;20.074;2024-01-11T11:25:36;34.60;;;17.10;;
34204;SDS011;20471;49.680;20.074;2024-01-11T11:28:05;29.40;;;15.20;;
34204;SDS011;20471;49.680;20.074;2024-01-11T11:30:33;35.00;;;17.20;;
34204;SDS011;20471;49.680;20.074;2024-01-11T11:35:49;49.50;;;21.40;;
34204;SDS011;20471;49.680;20.074;2024-01-11T11:38:23;45.50;;;21.40;;
34204;SDS011;20471;49.680;20.074;2024-01-11T11:40:55;52.30;;;22.10;;
34204;SDS011;20471;49.680;20.074;2024-01-11T11:43:24;41.90;;;19.20;;
34204;SDS011;20471;49.680;20.074;2024-01-11T11:45:54;39.40;;;17.30;;
34204;SDS011;20471;49.680;20.074;2024-01-11T11:51:15;48.60;;;22.40;;
34204;SDS011;20471;49.680;20.074;2024-01-11T11:53:45;59.60;;;27.70;;
34204;SDS011;20471;49.680;20.074;2024-01-11T11:56:14;54.60;;;22.80;;
34204;SDS011;20471;49.680;20.074;2024-01-11T11:58:44;31.90;;;15.70;;
34204;SDS011;20471;49.680;20.074;2024-01-11T12:01:13;29.30;;;13.10;;
34204;SDS011;20471;49.680;20.074;2024-01-11T12:03:44;35.30;;;16.10;;
34204;SDS011;20471;49.680;20.074;2024-01-11T12:06:16;30.30;;;14.00;;
34204;SDS011;20471;49.680;20.074;2024-01-11T12:08:48;36.00;;;14.70;;
34204;SDS011;20471;49.680;20.074;2024-01-11T12:11:17;30.60;;;14.70;;
34204;SDS011;20471;49.680;20.074;2024-01-11T12:13:49;30.10;;;14.50;;
34204;SDS011;20471;49.680;20.074;2024-01-11T12:16:19;40.90;;;19.40;;
34204;SDS011;20471;49.680;20.074;2024-01-11T12:18:48;51.60;;;23.90;;
34204;SDS011;20471;49.680;20.074;2024-01-11T12:21:17;49.50;;;22.10;;
34204;SDS011;20471;49.680;20.074;2024-01-11T12:23:44;39.20;;;18.30;;
34204;SDS011;20471;49.680;20.074;2024-01-11T12:26:12;47.00;;;19.80;;
34204;SDS011;20471;49.680;20.074;2024-01-11T12:28:41;22.10;;;9.60;;
34204;SDS011;20471;49.680;20.074;2024-01-11T12:31:10;16.80;;;8.00;;
34204;SDS011;20471;49.680;20.074;2024-01-11T12:33:38;40.90;;;18.40;;
34204;SDS011;20471;49.680;20.074;2024-01-11T12:36:07;26.40;;;11.20;;
34204;SDS011;20471;49.680;20.074;2024-01-11T12:38:35;15.80;;;7.00;;
34204;SDS011;20471;49.680;20.074;2024-01-11T12:41:03;17.50;;;8.70;;
34204;SDS011;20471;49.680;20.074;2024-01-11T12:43:33;27.40;;;11.80;;
34204;SDS011;20471;49.680;20.074;2024-01-11T12:46:01;32.80;;;14.20;;
34204;SDS011;20471;49.680;20.074;2024-01-11T12:48:29;28.30;;;12.40;;
34204;SDS011;20471;49.680;20.074;2024-01-11T12:50:57;30.40;;;14.40;;
34204;SDS011;20471;49.680;20.074;2024-01-11T12:53:25;22.00;;;10.50;;
34204;SDS011;20471;49.680;20.074;2024-01-11T12:56:07;16.10;;;8.80;;
34204;SDS011;20471;49.680;20.074;2024-01-11T12:58:37;16.40;;;8.20;;
34204;SDS011;20471;49.680;20.074;2024-01-11T13:01:05;17.40;;;8.80;;
34204;SDS011;20471;49.680;20.074;2024-01-11T13:03:38;21.00;;;11.00;;
34204;SDS011;20471;49.680;20.074;2024-01-11T13:06:06;26.00;;;12.10;;
34204;SDS011;20471;49.680;20.074;2024-01-11T13:08:35;19.60;;;11.00;;
34204;SDS011;20471;49.680;20.074;2024-01-11T13:11:03;14.80;;;7.90;;
34204;SDS011;20471;49.680;20.074;2024-01-11T13:13:36;19.10;;;9.70;;
34204;SDS011;20471;49.680;20.074;2024-01-11T13:16:03;34.00;;;16.20;;
34204;SDS011;20471;49.680;20.074;2024-01-11T13:18:37;30.90;;;14.70;;
34204;SDS011;20471;49.680;20.074;2024-01-11T13:21:04;20.70;;;10.50;;
34204;SDS011;20471;49.680;20.074;2024-01-11T13:23:32;21.30;;;9.90;;
34204;SDS011;20471;49.680;20.074;2024-01-11T13:26:01;20.10;;;10.90;;
34204;SDS011;20471;49.680;20.074;2024-01-11T13:28:30;22.90;;;10.60;;
34204;SDS011;20471;49.680;20.074;2024-01-11T13:30:59;21.70;;;10.40;;
34204;SDS011;20471;49.680;20.074;2024-01-11T13:33:28;30.30;;;15.30;;
34204;SDS011;20471;49.680;20.074;2024-01-11T13:35:56;20.20;;;9.90;;
34204;SDS011;20471;49.680;20.074;2024-01-11T13:38:23;36.50;;;16.20;;
34204;SDS011;20471;49.680;20.074;2024-01-11T13:40:51;36.00;;;16.30;;
34204;SDS011;20471;49.680;20.074;2024-01-11T13:43:19;34.40;;;14.50;;
34204;SDS011;20471;49.680;20.074;2024-01-11T13:45:46;31.00;;;14.60;;
34204;SDS011;20471;49.680;20.074;2024-01-11T13:48:14;19.70;;;10.10;;
34204;SDS011;20471;49.680;20.074;2024-01-11T13:50:42;25.00;;;11.30;;
34204;SDS011;20471;49.680;20.074;2024-01-11T13:53:10;27.40;;;13.80;;
34204;SDS011;20471;49.680;20.074;2024-01-11T13:55:37;31.90;;;13.90;;
34204;SDS011;20471;49.680;20.074;2024-01-11T13:58:05;29.70;;;12.40;;
34204;SDS011;20471;49.680;20.074;2024-01-11T14:00:33;29.80;;;14.20;;
34204;SDS011;20471;49.680;20.074;2024-01-11T14:03:01;31.10;;;13.50;;
34204;SDS011;20471;49.680;20.074;2024-01-11T14:05:30;38.00;;;16.00;;
34204;SDS011;20471;49.680;20.074;2024-01-11T14:07:57;51.10;;;21.10;;
34204;SDS011;20471;49.680;20.074;2024-01-11T14:10:27;45.30;;;20.20;;
34204;SDS011;20471;49.680;20.074;2024-01-11T14:12:55;51.20;;;24.90;;
34204;SDS011;20471;49.680;20.074;2024-01-11T14:15:22;27.70;;;13.00;;
34204;SDS011;20471;49.680;20.074;2024-01-11T14:17:51;31.40;;;14.50;;
34204;SDS011;20471;49.680;20.074;2024-01-11T14:20:18;29.90;;;15.50;;